sensor_id;sensor_type;location;lat;lon;timestamp;P1;durP1;ratioP1;P2;durP2;ratioP2
79126;SDS011;68528;48.814;8.904;2023-04-25T00:01:55;2.10;;;1.25;;
79126;SDS011;68528;48.814;8.904;2023-04-25T00:04:21;1.63;;;1.17;;
79126;SDS011;68528;48.814;8.904;2023-04-25T00:06:47;3.65;;;1.50;;
79126;SDS011;68528;48.814;8.904;2023-04-25T00:09:27;1.45;;;1.20;;
79126;SDS011;68528;48.814;8.904;2023-04-25T00:12:13;1.98;;;1.55;;
79126;SDS011;68528;48.814;8.904;2023-04-25T00:14:38;3.22;;;1.63;;
79126;SDS011;68528;48.814;8.904;2023-04-25T00:17:03;1.60;;;1.20;;
79126;SDS011;68528;48.814;8.904;2023-04-25T00:19:31;2.42;;;1.50;;
79126;SDS011;68528;48.814;8.904;2023-04-25T00:21:57;6.82;;;1.80;;
79126;SDS011;68528;48.814;8.904;2023-04-25T00:24:23;2.80;;;1.60;;
79126;SDS011;68528;48.814;8.904;2023-04-25T00:26:48;2.95;;;1.40;;
79126;SDS011;68528;48.814;8.904;2023-04-25T00:29:14;3.58;;;2.15;;
79126;SDS011;68528;48.814;8.904;2023-04-25T00:31:40;1.85;;;1.35;;
79126;SDS011;68528;48.814;8.904;2023-04-25T00:34:06;2.55;;;1.63;;
79126;SDS011;68528;48.814;8.904;2023-04-25T00:36:33;2.30;;;1.73;;
79126;SDS011;68528;48.814;8.904;2023-04-25T00:38:58;2.65;;;1.48;;
79126;SDS011;68528;48.814;8.904;2023-04-25T00:41:25;2.85;;;1.63;;
79126;SDS011;68528;48.814;8.904;2023-04-25T00:43:53;2.22;;;1.40;;
79126;SDS011;68528;48.814;8.904;2023-04-25T00:46:22;2.13;;;1.60;;
79126;SDS011;68528;48.814;8.904;2023-04-25T00:48:55;3.78;;;1.95;;
79126;SDS011;68528;48.814;8.904;2023-04-25T00:51:20;2.67;;;1.67;;
79126;SDS011;68528;48.814;8.904;2023-04-25T00:53:47;2.00;;;1.50;;
79126;SDS011;68528;48.814;8.904;2023-04-25T00:56:14;3.10;;;1.75;;
79126;SDS011;68528;48.814;8.904;2023-04-25T00:58:41;2.05;;;1.63;;
79126;SDS011;68528;48.814;8.904;2023-04-25T01:01:07;2.13;;;1.80;;
79126;SDS011;68528;48.814;8.904;2023-04-25T01:03:33;3.28;;;2.15;;
79126;SDS011;68528;48.814;8.904;2023-04-25T01:06:05;2.35;;;2.00;;
79126;SDS011;68528;48.814;8.904;2023-04-25T01:08:35;3.80;;;2.25;;
79126;SDS011;68528;48.814;8.904;2023-04-25T01:11:03;2.80;;;2.17;;
79126;SDS011;68528;48.814;8.904;2023-04-25T01:13:29;3.30;;;1.92;;
79126;SDS011;68528;48.814;8.904;2023-04-25T01:15:56;2.58;;;2.33;;
79126;SDS011;68528;48.814;8.904;2023-04-25T01:18:22;3.13;;;1.90;;
79126;SDS011;68528;48.814;8.904;2023-04-25T01:20:49;4.60;;;2.17;;
79126;SDS011;68528;48.814;8.904;2023-04-25T01:23:16;4.60;;;2.33;;
79126;SDS011;68528;48.814;8.904;2023-04-25T01:25:42;3.78;;;2.00;;
79126;SDS011;68528;48.814;8.904;2023-04-25T01:28:09;6.35;;;1.77;;
79126;SDS011;68528;48.814;8.904;2023-04-25T01:30:35;2.03;;;1.42;;
79126;SDS011;68528;48.814;8.904;2023-04-25T01:33:00;4.30;;;1.90;;
79126;SDS011;68528;48.814;8.904;2023-04-25T01:35:29;2.72;;;1.52;;
79126;SDS011;68528;48.814;8.904;2023-04-25T01:37:54;5.70;;;1.40;;
79126;SDS011;68528;48.814;8.904;2023-04-25T01:40:20;2.15;;;1.50;;
79126;SDS011;68528;48.814;8.904;2023-04-25T01:42:49;1.45;;;1.30;;
79126;SDS011;68528;48.814;8.904;2023-04-25T01:45:16;3.28;;;1.80;;
79126;SDS011;68528;48.814;8.904;2023-04-25T01:47:42;1.85;;;1.48;;
79126;SDS011;68528;48.814;8.904;2023-04-25T01:50:09;3.58;;;1.70;;
79126;SDS011;68528;48.814;8.904;2023-04-25T01:52:36;2.97;;;1.80;;
79126;SDS011;68528;48.814;8.904;2023-04-25T01:55:02;4.35;;;2.15;;
79126;SDS011;68528;48.814;8.904;2023-04-25T01:57:27;2.58;;;2.13;;
79126;SDS011;68528;48.814;8.904;2023-04-25T01:59:55;4.65;;;1.60;;
79126;SDS011;68528;48.814;8.904;2023-04-25T02:02:29;3.58;;;1.75;;
79126;SDS011;68528;48.814;8.904;2023-04-25T02:04:55;2.30;;;1.50;;
79126;SDS011;68528;48.814;8.904;2023-04-25T02:07:21;3.78;;;1.65;;
79126;SDS011;68528;48.814;8.904;2023-04-25T02:09:47;3.30;;;1.80;;
79126;SDS011;68528;48.814;8.904;2023-04-25T02:12:12;3.08;;;1.50;;
79126;SDS011;68528;48.814;8.904;2023-04-25T02:14:37;2.03;;;1.60;;
79126;SDS011;68528;48.814;8.904;2023-04-25T02:17:03;2.20;;;1.30;;
79126;SDS011;68528;48.814;8.904;2023-04-25T02:19:28;2.28;;;1.65;;
79126;SDS011;68528;48.814;8.904;2023-04-25T02:21:56;3.60;;;1.80;;
79126;SDS011;68528;48.814;8.904;2023-04-25T02:24:22;2.17;;;1.60;;
79126;SDS011;68528;48.814;8.904;2023-04-25T02:26:47;2.50;;;1.75;;
79126;SDS011;68528;48.814;8.904;2023-04-25T02:29:14;2.50;;;1.70;;
79126;SDS011;68528;48.814;8.904;2023-04-25T02:31:40;2.70;;;2.00;;
79126;SDS011;68528;48.814;8.904;2023-04-25T02:34:06;2.83;;;1.98;;
79126;SDS011;68528;48.814;8.904;2023-04-25T02:36:32;3.88;;;1.88;;
79126;SDS011;68528;48.814;8.904;2023-04-25T02:39:00;2.10;;;1.60;;
79126;SDS011;68528;48.814;8.904;2023-04-25T02:41:26;3.05;;;1.48;;
79126;SDS011;68528;48.814;8.904;2023-04-25T02:43:52;2.80;;;1.40;;
79126;SDS011;68528;48.814;8.904;2023-04-25T02:46:17;4.30;;;1.80;;
79126;SDS011;68528;48.814;8.904;2023-04-25T02:48:43;2.28;;;1.55;;
79126;SDS011;68528;48.814;8.904;2023-04-25T02:51:08;2.83;;;1.98;;
79126;SDS011;68528;48.814;8.904;2023-04-25T02:53:34;2.40;;;1.70;;
79126;SDS011;68528;48.814;8.904;2023-04-25T02:56:01;3.17;;;1.75;;
79126;SDS011;68528;48.814;8.904;2023-04-25T02:58:28;4.40;;;1.83;;
79126;SDS011;68528;48.814;8.904;2023-04-25T03:00:53;3.33;;;1.73;;
79126;SDS011;68528;48.814;8.904;2023-04-25T03:03:19;3.38;;;1.77;;
79126;SDS011;68528;48.814;8.904;2023-04-25T03:05:48;1.73;;;1.60;;
79126;SDS011;68528;48.814;8.904;2023-04-25T03:08:13;3.95;;;1.85;;
79126;SDS011;68528;48.814;8.904;2023-04-25T03:10:39;6.28;;;2.30;;
79126;SDS011;68528;48.814;8.904;2023-04-25T03:13:04;6.60;;;2.22;;
79126;SDS011;68528;48.814;8.904;2023-04-25T03:15:30;5.30;;;3.03;;
79126;SDS011;68528;48.814;8.904;2023-04-25T03:17:56;4.05;;;2.15;;
79126;SDS011;68528;48.814;8.904;2023-04-25T03:20:21;2.92;;;1.98;;
79126;SDS011;68528;48.814;8.904;2023-04-25T03:22:47;4.70;;;2.70;;
79126;SDS011;68528;48.814;8.904;2023-04-25T03:25:12;3.42;;;3.13;;
79126;SDS011;68528;48.814;8.904;2023-04-25T03:27:38;3.60;;;2.40;;
79126;SDS011;68528;48.814;8.904;2023-04-25T03:30:03;2.30;;;1.67;;
79126;SDS011;68528;48.814;8.904;2023-04-25T03:32:29;3.60;;;2.05;;
79126;SDS011;68528;48.814;8.904;2023-04-25T03:34:55;2.97;;;1.85;;
79126;SDS011;68528;48.814;8.904;2023-04-25T03:37:20;4.00;;;1.80;;
79126;SDS011;68528;48.814;8.904;2023-04-25T03:39:46;3.00;;;1.80;;
79126;SDS011;68528;48.814;8.904;2023-04-25T03:42:11;2.67;;;2.28;;
79126;SDS011;68528;48.814;8.904;2023-04-25T03:44:38;4.13;;;2.35;;
79126;SDS011;68528;48.814;8.904;2023-04-25T03:47:04;5.53;;;2.50;;
79126;SDS011;68528;48.814;8.904;2023-04-25T03:49:30;5.68;;;2.38;;
79126;SDS011;68528;48.814;8.904;2023-04-25T03:51:56;3.65;;;2.17;;
79126;SDS011;68528;48.814;8.904;2023-04-25T03:54:23;3.78;;;2.53;;
79126;SDS011;68528;48.814;8.904;2023-04-25T03:56:48;5.00;;;2.72;;
79126;SDS011;68528;48.814;8.904;2023-04-25T03:59:14;3.25;;;2.55;;
79126;SDS011;68528;48.814;8.904;2023-04-25T04:01:39;4.60;;;2.35;;
79126;SDS011;68528;48.814;8.904;2023-04-25T04:04:04;3.40;;;2.87;;
79126;SDS011;68528;48.814;8.904;2023-04-25T04:06:30;5.07;;;2.88;;
79126;SDS011;68528;48.814;8.904;2023-04-25T04:08:56;5.82;;;2.90;;
79126;SDS011;68528;48.814;8.904;2023-04-25T04:11:22;6.45;;;3.08;;
79126;SDS011;68528;48.814;8.904;2023-04-25T04:13:47;4.38;;;2.58;;
79126;SDS011;68528;48.814;8.904;2023-04-25T04:16:12;5.68;;;3.15;;
79126;SDS011;68528;48.814;8.904;2023-04-25T04:18:38;4.03;;;2.90;;
79126;SDS011;68528;48.814;8.904;2023-04-25T04:21:03;5.20;;;3.17;;
79126;SDS011;68528;48.814;8.904;2023-04-25T04:23:29;4.18;;;3.15;;
79126;SDS011;68528;48.814;8.904;2023-04-25T04:25:56;4.28;;;2.95;;
79126;SDS011;68528;48.814;8.904;2023-04-25T04:28:21;4.00;;;3.00;;
79126;SDS011;68528;48.814;8.904;2023-04-25T04:30:47;3.90;;;2.45;;
79126;SDS011;68528;48.814;8.904;2023-04-25T04:33:13;4.55;;;2.95;;
79126;SDS011;68528;48.814;8.904;2023-04-25T04:35:40;6.22;;;3.30;;
79126;SDS011;68528;48.814;8.904;2023-04-25T04:38:10;4.97;;;2.72;;
79126;SDS011;68528;48.814;8.904;2023-04-25T04:40:36;4.43;;;2.70;;
79126;SDS011;68528;48.814;8.904;2023-04-25T04:43:02;4.05;;;3.03;;
79126;SDS011;68528;48.814;8.904;2023-04-25T04:45:28;4.75;;;3.05;;
79126;SDS011;68528;48.814;8.904;2023-04-25T04:47:54;4.65;;;2.58;;
79126;SDS011;68528;48.814;8.904;2023-04-25T04:50:39;6.03;;;2.42;;
79126;SDS011;68528;48.814;8.904;2023-04-25T04:53:06;5.07;;;2.75;;
79126;SDS011;68528;48.814;8.904;2023-04-25T04:55:32;6.22;;;3.90;;
79126;SDS011;68528;48.814;8.904;2023-04-25T04:57:57;6.65;;;3.03;;
79126;SDS011;68528;48.814;8.904;2023-04-25T05:00:27;5.00;;;2.67;;
79126;SDS011;68528;48.814;8.904;2023-04-25T05:02:54;4.90;;;2.60;;
79126;SDS011;68528;48.814;8.904;2023-04-25T05:05:20;3.05;;;1.92;;
79126;SDS011;68528;48.814;8.904;2023-04-25T05:07:46;3.83;;;2.33;;
79126;SDS011;68528;48.814;8.904;2023-04-25T05:10:11;3.72;;;2.40;;
79126;SDS011;68528;48.814;8.904;2023-04-25T05:12:37;4.65;;;2.75;;
79126;SDS011;68528;48.814;8.904;2023-04-25T05:15:03;3.22;;;2.65;;
79126;SDS011;68528;48.814;8.904;2023-04-25T05:17:49;3.00;;;2.00;;
79126;SDS011;68528;48.814;8.904;2023-04-25T05:20:15;3.58;;;2.17;;
79126;SDS011;68528;48.814;8.904;2023-04-25T05:23:04;3.95;;;2.28;;
79126;SDS011;68528;48.814;8.904;2023-04-25T05:25:32;3.33;;;2.50;;
79126;SDS011;68528;48.814;8.904;2023-04-25T05:27:58;4.85;;;2.28;;
79126;SDS011;68528;48.814;8.904;2023-04-25T05:30:23;3.13;;;2.35;;
79126;SDS011;68528;48.814;8.904;2023-04-25T05:32:49;3.90;;;2.22;;
79126;SDS011;68528;48.814;8.904;2023-04-25T05:35:15;2.95;;;2.13;;
79126;SDS011;68528;48.814;8.904;2023-04-25T05:37:42;3.25;;;2.45;;
79126;SDS011;68528;48.814;8.904;2023-04-25T05:40:07;7.20;;;3.22;;
79126;SDS011;68528;48.814;8.904;2023-04-25T05:42:33;3.85;;;2.63;;
79126;SDS011;68528;48.814;8.904;2023-04-25T05:45:00;3.03;;;2.03;;
79126;SDS011;68528;48.814;8.904;2023-04-25T05:47:26;3.30;;;2.30;;
79126;SDS011;68528;48.814;8.904;2023-04-25T05:49:54;3.05;;;2.10;;
79126;SDS011;68528;48.814;8.904;2023-04-25T05:52:20;2.80;;;1.80;;
79126;SDS011;68528;48.814;8.904;2023-04-25T05:54:45;3.10;;;2.15;;
79126;SDS011;68528;48.814;8.904;2023-04-25T06:00:18;3.15;;;2.10;;
79126;SDS011;68528;48.814;8.904;2023-04-25T06:02:44;2.63;;;1.88;;
79126;SDS011;68528;48.814;8.904;2023-04-25T06:05:12;4.45;;;1.98;;
79126;SDS011;68528;48.814;8.904;2023-04-25T06:07:37;3.00;;;2.10;;
79126;SDS011;68528;48.814;8.904;2023-04-25T06:10:03;2.25;;;1.73;;
79126;SDS011;68528;48.814;8.904;2023-04-25T06:12:31;2.95;;;1.70;;
79126;SDS011;68528;48.814;8.904;2023-04-25T06:14:57;8.95;;;2.30;;
79126;SDS011;68528;48.814;8.904;2023-04-25T06:18:00;3.80;;;1.85;;
79126;SDS011;68528;48.814;8.904;2023-04-25T06:20:26;2.95;;;2.03;;
79126;SDS011;68528;48.814;8.904;2023-04-25T06:22:51;7.00;;;3.65;;
79126;SDS011;68528;48.814;8.904;2023-04-25T06:25:17;3.70;;;2.38;;
79126;SDS011;68528;48.814;8.904;2023-04-25T06:27:43;10.48;;;2.10;;
79126;SDS011;68528;48.814;8.904;2023-04-25T06:30:08;3.05;;;2.33;;
79126;SDS011;68528;48.814;8.904;2023-04-25T06:32:34;3.70;;;2.67;;
79126;SDS011;68528;48.814;8.904;2023-04-25T06:35:00;6.57;;;2.45;;
79126;SDS011;68528;48.814;8.904;2023-04-25T06:37:34;5.82;;;2.80;;
79126;SDS011;68528;48.814;8.904;2023-04-25T06:39:59;3.60;;;2.42;;
79126;SDS011;68528;48.814;8.904;2023-04-25T06:42:25;5.10;;;2.88;;
79126;SDS011;68528;48.814;8.904;2023-04-25T06:44:50;4.00;;;2.35;;
79126;SDS011;68528;48.814;8.904;2023-04-25T06:47:16;4.05;;;2.20;;
79126;SDS011;68528;48.814;8.904;2023-04-25T06:49:41;4.75;;;2.70;;
79126;SDS011;68528;48.814;8.904;2023-04-25T06:52:07;4.93;;;2.47;;
79126;SDS011;68528;48.814;8.904;2023-04-25T06:54:33;4.20;;;3.38;;
79126;SDS011;68528;48.814;8.904;2023-04-25T06:56:58;5.25;;;3.03;;
79126;SDS011;68528;48.814;8.904;2023-04-25T06:59:25;6.53;;;2.90;;
79126;SDS011;68528;48.814;8.904;2023-04-25T07:01:51;4.25;;;2.53;;
79126;SDS011;68528;48.814;8.904;2023-04-25T07:04:16;5.28;;;2.90;;
79126;SDS011;68528;48.814;8.904;2023-04-25T07:06:44;4.68;;;2.90;;
79126;SDS011;68528;48.814;8.904;2023-04-25T07:09:10;3.83;;;2.60;;
79126;SDS011;68528;48.814;8.904;2023-04-25T07:11:39;4.75;;;2.90;;
79126;SDS011;68528;48.814;8.904;2023-04-25T07:14:25;5.50;;;2.72;;
79126;SDS011;68528;48.814;8.904;2023-04-25T07:16:51;5.38;;;2.28;;
79126;SDS011;68528;48.814;8.904;2023-04-25T07:19:17;8.63;;;2.90;;
79126;SDS011;68528;48.814;8.904;2023-04-25T07:21:45;5.20;;;2.72;;
79126;SDS011;68528;48.814;8.904;2023-04-25T07:24:13;3.35;;;2.78;;
79126;SDS011;68528;48.814;8.904;2023-04-25T07:26:39;3.92;;;2.15;;
79126;SDS011;68528;48.814;8.904;2023-04-25T07:29:04;4.38;;;2.30;;
79126;SDS011;68528;48.814;8.904;2023-04-25T07:31:55;4.88;;;2.63;;
79126;SDS011;68528;48.814;8.904;2023-04-25T07:34:22;5.15;;;2.42;;
79126;SDS011;68528;48.814;8.904;2023-04-25T07:36:47;3.92;;;2.25;;
79126;SDS011;68528;48.814;8.904;2023-04-25T07:39:13;3.00;;;2.40;;
79126;SDS011;68528;48.814;8.904;2023-04-25T07:41:38;4.18;;;2.45;;
79126;SDS011;68528;48.814;8.904;2023-04-25T07:44:04;3.75;;;2.55;;
79126;SDS011;68528;48.814;8.904;2023-04-25T07:46:29;4.28;;;2.70;;
79126;SDS011;68528;48.814;8.904;2023-04-25T07:48:55;2.50;;;2.08;;
79126;SDS011;68528;48.814;8.904;2023-04-25T07:51:20;5.90;;;2.42;;
79126;SDS011;68528;48.814;8.904;2023-04-25T07:53:48;3.60;;;2.63;;
79126;SDS011;68528;48.814;8.904;2023-04-25T07:56:14;4.95;;;2.47;;
79126;SDS011;68528;48.814;8.904;2023-04-25T07:58:39;3.60;;;2.63;;
79126;SDS011;68528;48.814;8.904;2023-04-25T08:01:04;5.30;;;3.00;;
79126;SDS011;68528;48.814;8.904;2023-04-25T08:03:30;4.88;;;3.00;;
79126;SDS011;68528;48.814;8.904;2023-04-25T08:05:55;3.78;;;2.90;;
79126;SDS011;68528;48.814;8.904;2023-04-25T08:08:20;6.30;;;3.47;;
79126;SDS011;68528;48.814;8.904;2023-04-25T08:10:46;5.55;;;2.83;;
79126;SDS011;68528;48.814;8.904;2023-04-25T08:13:13;2.40;;;1.92;;
79126;SDS011;68528;48.814;8.904;2023-04-25T08:15:38;2.63;;;2.17;;
79126;SDS011;68528;48.814;8.904;2023-04-25T08:18:04;6.53;;;2.75;;
79126;SDS011;68528;48.814;8.904;2023-04-25T08:20:30;5.35;;;2.78;;
79126;SDS011;68528;48.814;8.904;2023-04-25T08:22:56;3.53;;;2.78;;
79126;SDS011;68528;48.814;8.904;2023-04-25T08:25:21;4.20;;;2.78;;
79126;SDS011;68528;48.814;8.904;2023-04-25T08:27:49;3.92;;;3.00;;
79126;SDS011;68528;48.814;8.904;2023-04-25T08:30:15;4.38;;;2.83;;
79126;SDS011;68528;48.814;8.904;2023-04-25T08:32:42;7.30;;;3.65;;
79126;SDS011;68528;48.814;8.904;2023-04-25T08:35:07;4.95;;;3.55;;
79126;SDS011;68528;48.814;8.904;2023-04-25T08:37:33;6.65;;;3.35;;
79126;SDS011;68528;48.814;8.904;2023-04-25T08:39:58;7.23;;;3.50;;
79126;SDS011;68528;48.814;8.904;2023-04-25T08:42:24;6.10;;;3.60;;
79126;SDS011;68528;48.814;8.904;2023-04-25T08:44:52;5.60;;;3.55;;
79126;SDS011;68528;48.814;8.904;2023-04-25T08:47:20;4.72;;;3.50;;
79126;SDS011;68528;48.814;8.904;2023-04-25T08:49:47;4.95;;;3.42;;
79126;SDS011;68528;48.814;8.904;2023-04-25T08:52:14;7.32;;;4.47;;
79126;SDS011;68528;48.814;8.904;2023-04-25T08:54:42;5.75;;;4.20;;
79126;SDS011;68528;48.814;8.904;2023-04-25T08:57:12;5.85;;;4.05;;
79126;SDS011;68528;48.814;8.904;2023-04-25T08:59:37;4.72;;;3.83;;
79126;SDS011;68528;48.814;8.904;2023-04-25T09:02:04;3.80;;;3.25;;
79126;SDS011;68528;48.814;8.904;2023-04-25T09:04:36;4.05;;;2.65;;
79126;SDS011;68528;48.814;8.904;2023-04-25T09:07:23;3.17;;;2.63;;
79126;SDS011;68528;48.814;8.904;2023-04-25T09:09:50;2.97;;;1.88;;
79126;SDS011;68528;48.814;8.904;2023-04-25T09:12:18;5.53;;;3.35;;
79126;SDS011;68528;48.814;8.904;2023-04-25T09:15:00;2.35;;;1.83;;
79126;SDS011;68528;48.814;8.904;2023-04-25T09:17:30;3.35;;;1.23;;
79126;SDS011;68528;48.814;8.904;2023-04-25T09:19:55;1.45;;;1.02;;
79126;SDS011;68528;48.814;8.904;2023-04-25T09:22:31;1.67;;;1.15;;
79126;SDS011;68528;48.814;8.904;2023-04-25T09:24:56;1.17;;;1.08;;
79126;SDS011;68528;48.814;8.904;2023-04-25T09:27:22;1.55;;;1.20;;
79126;SDS011;68528;48.814;8.904;2023-04-25T09:29:56;2.15;;;1.00;;
79126;SDS011;68528;48.814;8.904;2023-04-25T09:32:24;3.20;;;0.98;;
79126;SDS011;68528;48.814;8.904;2023-04-25T09:34:50;1.42;;;1.13;;
79126;SDS011;68528;48.814;8.904;2023-04-25T09:39:49;1.65;;;1.33;;
79126;SDS011;68528;48.814;8.904;2023-04-25T09:42:16;1.80;;;1.70;;
79126;SDS011;68528;48.814;8.904;2023-04-25T09:44:47;2.65;;;1.50;;
79126;SDS011;68528;48.814;8.904;2023-04-25T09:47:14;2.88;;;2.67;;
79126;SDS011;68528;48.814;8.904;2023-04-25T09:49:41;1.73;;;1.60;;
79126;SDS011;68528;48.814;8.904;2023-04-25T09:52:07;1.50;;;1.00;;
79126;SDS011;68528;48.814;8.904;2023-04-25T09:54:33;1.40;;;0.95;;
79126;SDS011;68528;48.814;8.904;2023-04-25T09:57:01;3.50;;;0.75;;
79126;SDS011;68528;48.814;8.904;2023-04-25T09:59:53;2.28;;;0.55;;
79126;SDS011;68528;48.814;8.904;2023-04-25T10:02:20;0.85;;;0.70;;
79126;SDS011;68528;48.814;8.904;2023-04-25T10:04:51;3.38;;;0.88;;
79126;SDS011;68528;48.814;8.904;2023-04-25T10:07:23;1.10;;;0.60;;
79126;SDS011;68528;48.814;8.904;2023-04-25T10:09:54;1.95;;;0.70;;
79126;SDS011;68528;48.814;8.904;2023-04-25T10:14:54;0.80;;;0.60;;
79126;SDS011;68528;48.814;8.904;2023-04-25T10:17:22;0.80;;;0.65;;
79126;SDS011;68528;48.814;8.904;2023-04-25T10:19:52;2.78;;;0.70;;
79126;SDS011;68528;48.814;8.904;2023-04-25T10:22:20;0.95;;;0.65;;
79126;SDS011;68528;48.814;8.904;2023-04-25T10:24:54;1.25;;;0.70;;
79126;SDS011;68528;48.814;8.904;2023-04-25T10:27:21;0.88;;;0.70;;
79126;SDS011;68528;48.814;8.904;2023-04-25T10:29:59;2.28;;;0.98;;
79126;SDS011;68528;48.814;8.904;2023-04-25T10:32:33;2.10;;;1.52;;
79126;SDS011;68528;48.814;8.904;2023-04-25T10:35:10;3.42;;;2.28;;
79126;SDS011;68528;48.814;8.904;2023-04-25T10:40:32;5.82;;;4.05;;
79126;SDS011;68528;48.814;8.904;2023-04-25T10:46:01;4.05;;;3.00;;
79126;SDS011;68528;48.814;8.904;2023-04-25T10:48:31;4.75;;;2.90;;
79126;SDS011;68528;48.814;8.904;2023-04-25T10:51:15;3.42;;;2.22;;
79126;SDS011;68528;48.814;8.904;2023-04-25T10:54:06;3.38;;;2.22;;
79126;SDS011;68528;48.814;8.904;2023-04-25T11:01:39;3.75;;;2.13;;
79126;SDS011;68528;48.814;8.904;2023-04-25T11:10:03;1.80;;;1.42;;
79126;SDS011;68528;48.814;8.904;2023-04-25T11:12:33;1.60;;;1.20;;
79126;SDS011;68528;48.814;8.904;2023-04-25T11:15:05;3.85;;;1.77;;
79126;SDS011;68528;48.814;8.904;2023-04-25T11:17:32;2.15;;;1.60;;
79126;SDS011;68528;48.814;8.904;2023-04-25T11:19:58;2.22;;;1.58;;
79126;SDS011;68528;48.814;8.904;2023-04-25T11:22:24;2.42;;;1.70;;
79126;SDS011;68528;48.814;8.904;2023-04-25T11:24:51;3.25;;;1.55;;
79126;SDS011;68528;48.814;8.904;2023-04-25T11:27:16;1.80;;;1.50;;
79126;SDS011;68528;48.814;8.904;2023-04-25T11:29:42;1.85;;;1.40;;
79126;SDS011;68528;48.814;8.904;2023-04-25T11:32:09;2.20;;;1.38;;
79126;SDS011;68528;48.814;8.904;2023-04-25T11:34:37;2.85;;;1.88;;
79126;SDS011;68528;48.814;8.904;2023-04-25T11:37:25;2.33;;;1.58;;
79126;SDS011;68528;48.814;8.904;2023-04-25T11:39:53;4.47;;;1.88;;
79126;SDS011;68528;48.814;8.904;2023-04-25T11:42:22;4.63;;;2.50;;
79126;SDS011;68528;48.814;8.904;2023-04-25T11:44:47;6.22;;;2.80;;
79126;SDS011;68528;48.814;8.904;2023-04-25T11:47:13;5.53;;;2.30;;
79126;SDS011;68528;48.814;8.904;2023-04-25T11:49:40;5.05;;;3.00;;
79126;SDS011;68528;48.814;8.904;2023-04-25T11:52:06;6.15;;;3.55;;
79126;SDS011;68528;48.814;8.904;2023-04-25T11:54:37;7.18;;;3.80;;
79126;SDS011;68528;48.814;8.904;2023-04-25T11:57:04;7.22;;;3.83;;
79126;SDS011;68528;48.814;8.904;2023-04-25T11:59:31;6.90;;;3.75;;
79126;SDS011;68528;48.814;8.904;2023-04-25T12:01:57;7.00;;;4.65;;
79126;SDS011;68528;48.814;8.904;2023-04-25T12:04:24;8.60;;;4.40;;
79126;SDS011;68528;48.814;8.904;2023-04-25T12:06:52;7.75;;;4.55;;
79126;SDS011;68528;48.814;8.904;2023-04-25T12:09:20;7.18;;;3.40;;
79126;SDS011;68528;48.814;8.904;2023-04-25T12:11:53;6.13;;;4.00;;
79126;SDS011;68528;48.814;8.904;2023-04-25T12:14:22;5.00;;;3.30;;
79126;SDS011;68528;48.814;8.904;2023-04-25T12:16:52;7.88;;;4.18;;
79126;SDS011;68528;48.814;8.904;2023-04-25T12:19:20;6.32;;;3.53;;
79126;SDS011;68528;48.814;8.904;2023-04-25T12:21:46;5.18;;;3.13;;
79126;SDS011;68528;48.814;8.904;2023-04-25T12:24:15;4.72;;;3.33;;
79126;SDS011;68528;48.814;8.904;2023-04-25T12:26:51;5.80;;;3.25;;
79126;SDS011;68528;48.814;8.904;2023-04-25T12:29:31;5.10;;;3.05;;
79126;SDS011;68528;48.814;8.904;2023-04-25T12:32:01;4.05;;;2.70;;
79126;SDS011;68528;48.814;8.904;2023-04-25T12:34:27;5.53;;;3.45;;
79126;SDS011;68528;48.814;8.904;2023-04-25T12:36:59;4.85;;;3.63;;
79126;SDS011;68528;48.814;8.904;2023-04-25T12:39:25;5.43;;;3.38;;
79126;SDS011;68528;48.814;8.904;2023-04-25T12:41:51;5.53;;;3.10;;
79126;SDS011;68528;48.814;8.904;2023-04-25T13:03:40;5.22;;;3.53;;
79126;SDS011;68528;48.814;8.904;2023-04-25T13:06:06;6.88;;;4.85;;
79126;SDS011;68528;48.814;8.904;2023-04-25T13:08:32;6.82;;;4.88;;
79126;SDS011;68528;48.814;8.904;2023-04-25T13:10:58;7.60;;;4.22;;
79126;SDS011;68528;48.814;8.904;2023-04-25T13:13:23;11.52;;;4.70;;
79126;SDS011;68528;48.814;8.904;2023-04-25T13:15:48;7.93;;;4.10;;
79126;SDS011;68528;48.814;8.904;2023-04-25T13:18:14;7.28;;;4.45;;
79126;SDS011;68528;48.814;8.904;2023-04-25T13:21:05;8.00;;;3.83;;
79126;SDS011;68528;48.814;8.904;2023-04-25T13:23:30;7.40;;;4.45;;
79126;SDS011;68528;48.814;8.904;2023-04-25T13:25:56;8.00;;;4.10;;
79126;SDS011;68528;48.814;8.904;2023-04-25T13:28:26;8.05;;;3.90;;
79126;SDS011;68528;48.814;8.904;2023-04-25T13:30:52;7.40;;;3.88;;
79126;SDS011;68528;48.814;8.904;2023-04-25T13:33:17;9.80;;;3.58;;
79126;SDS011;68528;48.814;8.904;2023-04-25T13:35:43;7.90;;;4.10;;
79126;SDS011;68528;48.814;8.904;2023-04-25T13:38:12;5.07;;;3.75;;
79126;SDS011;68528;48.814;8.904;2023-04-25T13:40:38;9.25;;;3.33;;
79126;SDS011;68528;48.814;8.904;2023-04-25T13:43:04;4.90;;;3.67;;
79126;SDS011;68528;48.814;8.904;2023-04-25T13:45:34;9.70;;;4.13;;
79126;SDS011;68528;48.814;8.904;2023-04-25T13:47:59;5.80;;;3.30;;
79126;SDS011;68528;48.814;8.904;2023-04-25T13:50:25;5.78;;;4.07;;
79126;SDS011;68528;48.814;8.904;2023-04-25T13:52:51;5.38;;;3.58;;
79126;SDS011;68528;48.814;8.904;2023-04-25T13:55:16;6.15;;;4.05;;
79126;SDS011;68528;48.814;8.904;2023-04-25T13:57:48;5.05;;;4.00;;
79126;SDS011;68528;48.814;8.904;2023-04-25T14:09:56;5.05;;;3.30;;
79126;SDS011;68528;48.814;8.904;2023-04-25T14:15:12;6.68;;;3.25;;
79126;SDS011;68528;48.814;8.904;2023-04-25T14:17:38;3.97;;;2.83;;
79126;SDS011;68528;48.814;8.904;2023-04-25T14:20:04;9.02;;;3.65;;
79126;SDS011;68528;48.814;8.904;2023-04-25T14:22:30;4.13;;;2.67;;
79126;SDS011;68528;48.814;8.904;2023-04-25T14:24:57;4.25;;;2.88;;
79126;SDS011;68528;48.814;8.904;2023-04-25T14:27:44;6.07;;;2.85;;
79126;SDS011;68528;48.814;8.904;2023-04-25T14:30:12;6.35;;;2.83;;
79126;SDS011;68528;48.814;8.904;2023-04-25T14:32:37;3.58;;;2.80;;
79126;SDS011;68528;48.814;8.904;2023-04-25T14:35:03;4.00;;;2.92;;
79126;SDS011;68528;48.814;8.904;2023-04-25T14:37:30;4.03;;;2.42;;
79126;SDS011;68528;48.814;8.904;2023-04-25T14:39:55;4.77;;;2.53;;
79126;SDS011;68528;48.814;8.904;2023-04-25T14:42:21;2.60;;;2.10;;
79126;SDS011;68528;48.814;8.904;2023-04-25T14:44:46;3.80;;;2.40;;
79126;SDS011;68528;48.814;8.904;2023-04-25T14:47:12;5.05;;;2.72;;
79126;SDS011;68528;48.814;8.904;2023-04-25T14:49:37;3.65;;;2.40;;
79126;SDS011;68528;48.814;8.904;2023-04-25T14:52:16;4.18;;;2.67;;
79126;SDS011;68528;48.814;8.904;2023-04-25T14:54:41;6.85;;;2.60;;
79126;SDS011;68528;48.814;8.904;2023-04-25T14:57:07;4.50;;;2.53;;
79126;SDS011;68528;48.814;8.904;2023-04-25T14:59:34;6.35;;;2.60;;
79126;SDS011;68528;48.814;8.904;2023-04-25T15:01:59;7.53;;;2.50;;
79126;SDS011;68528;48.814;8.904;2023-04-25T15:04:24;4.50;;;3.10;;
79126;SDS011;68528;48.814;8.904;2023-04-25T15:06:50;3.58;;;2.70;;
79126;SDS011;68528;48.814;8.904;2023-04-25T15:09:17;4.95;;;2.45;;
79126;SDS011;68528;48.814;8.904;2023-04-25T15:11:43;4.95;;;2.92;;
79126;SDS011;68528;48.814;8.904;2023-04-25T15:14:09;5.88;;;3.13;;
79126;SDS011;68528;48.814;8.904;2023-04-25T15:16:35;4.63;;;3.03;;
79126;SDS011;68528;48.814;8.904;2023-04-25T15:19:00;4.20;;;3.00;;
79126;SDS011;68528;48.814;8.904;2023-04-25T15:21:29;4.50;;;2.92;;
79126;SDS011;68528;48.814;8.904;2023-04-25T15:23:55;4.25;;;3.08;;
79126;SDS011;68528;48.814;8.904;2023-04-25T15:26:22;4.00;;;3.10;;
79126;SDS011;68528;48.814;8.904;2023-04-25T15:28:49;4.60;;;2.72;;
79126;SDS011;68528;48.814;8.904;2023-04-25T15:31:16;5.18;;;3.38;;
79126;SDS011;68528;48.814;8.904;2023-04-25T15:33:44;6.15;;;2.80;;
79126;SDS011;68528;48.814;8.904;2023-04-25T15:36:10;5.38;;;3.47;;
79126;SDS011;68528;48.814;8.904;2023-04-25T15:38:36;6.65;;;2.70;;
79126;SDS011;68528;48.814;8.904;2023-04-25T15:41:01;7.45;;;3.53;;
79126;SDS011;68528;48.814;8.904;2023-04-25T15:43:27;6.20;;;3.63;;
79126;SDS011;68528;48.814;8.904;2023-04-25T15:45:54;6.55;;;3.13;;
79126;SDS011;68528;48.814;8.904;2023-04-25T15:48:19;7.88;;;3.80;;